createdAt,value
2022-12-23T00:01:12.138Z,63.30
2022-12-23T00:03:41.268Z,53.00
2022-12-23T00:06:12.581Z,67.20
2022-12-23T00:08:43.207Z,62.90
2022-12-23T00:11:20.552Z,71.60
2022-12-23T00:14:11.245Z,64.50
2022-12-23T00:16:44.742Z,62.80
2022-12-23T00:19:14.568Z,75.70
2022-12-23T00:21:43.566Z,78.20
2022-12-23T00:24:13.892Z,66.70
2022-12-23T00:26:42.560Z,84.30
2022-12-23T00:29:13.201Z,84.20
2022-12-23T00:31:42.532Z,84.30
2022-12-23T00:34:13.427Z,75.90
2022-12-23T00:36:42.848Z,75.30
2022-12-23T00:39:33.336Z,64.50
2022-12-23T00:42:21.390Z,51.10
2022-12-23T00:44:50.917Z,50.40
2022-12-23T00:47:40.352Z,58.60
2022-12-23T00:50:10.078Z,56.10
2022-12-23T00:52:39.174Z,56.70
2022-12-23T00:55:08.842Z,59.40
2022-12-23T00:57:37.545Z,51.80
2022-12-23T01:00:07.575Z,59.20
2022-12-23T01:02:55.248Z,61.60
2022-12-23T01:05:37.097Z,61.60
2022-12-23T01:08:09.417Z,59.30
2022-12-23T01:10:40.497Z,59.40
2022-12-23T01:13:09.398Z,57.80
2022-12-23T01:15:39.675Z,56.80
2022-12-23T01:20:42.361Z,50.70
2022-12-23T01:23:11.929Z,53.60
2022-12-23T01:25:40.927Z,50.50
2022-12-23T01:28:11.044Z,50.50
2022-12-23T01:30:40.343Z,51.40
2022-12-23T01:33:10.314Z,49.30
2022-12-23T01:35:40.265Z,49.20
2022-12-23T01:38:09.360Z,40.90
2022-12-23T01:40:40.649Z,42.20
2022-12-23T01:43:20.322Z,44.30
2022-12-23T01:45:49.816Z,48.40
2022-12-23T01:48:24.712Z,54.30
2022-12-23T01:51:05.340Z,59.00
2022-12-23T01:53:40.184Z,55.60
2022-12-23T01:56:28.451Z,54.40
2022-12-23T01:59:10.833Z,52.80
2022-12-23T02:01:59.227Z,46.00
2022-12-23T02:04:29.066Z,51.50
2022-12-23T02:07:17.221Z,58.20
2022-12-23T02:09:47.702Z,52.80
2022-12-23T02:12:44.612Z,44.50
2022-12-23T02:15:38.083Z,46.30
2022-12-23T02:18:38.195Z,49.40
2022-12-23T02:21:44.986Z,37.10
2022-12-23T02:25:22.993Z,55.50
2022-12-23T02:27:53.033Z,54.20
2022-12-23T02:30:28.087Z,50.50
2022-12-23T02:33:10.800Z,56.50
2022-12-23T02:35:52.202Z,58.60
2022-12-23T02:38:31.403Z,59.30
2022-12-23T02:41:10.607Z,58.40
2022-12-23T02:43:51.414Z,56.70
2022-12-23T02:46:30.309Z,58.40
2022-12-23T02:49:10.125Z,54.80
2022-12-23T02:51:45.701Z,58.40
2022-12-23T02:54:19.490Z,55.30
2022-12-23T02:56:52.647Z,57.70
2022-12-23T02:59:26.790Z,59.70
2022-12-23T03:01:58.608Z,59.20
2022-12-23T03:04:29.370Z,57.00
2022-12-23T03:07:06.963Z,56.80
2022-12-23T03:09:54.911Z,54.30
2022-12-23T03:12:27.937Z,56.00
2022-12-23T03:15:21.988Z,56.20
2022-12-23T03:18:21.492Z,55.30
2022-12-23T03:20:51.511Z,43.10
2022-12-23T03:23:28.797Z,50.70
2022-12-23T03:26:11.801Z,45.60
2022-12-23T03:28:52.814Z,49.10
2022-12-23T03:31:29.905Z,46.40
2022-12-23T03:34:04.911Z,44.90
2022-12-23T03:36:44.362Z,37.60
2022-12-23T03:39:19.897Z,42.80
2022-12-23T03:41:55.029Z,53.00
2022-12-23T03:44:33.643Z,49.10
2022-12-23T03:47:11.436Z,50.20
2022-12-23T03:49:54.919Z,52.50
2022-12-23T03:52:32.148Z,43.90
2022-12-23T03:55:06.781Z,42.50
2022-12-23T03:57:48.004Z,44.10
2022-12-23T04:00:18.095Z,46.40
2022-12-23T04:05:37.673Z,51.10
2022-12-23T04:08:35.136Z,50.30
2022-12-23T04:11:05.754Z,56.70
2022-12-23T04:13:36.307Z,48.90
2022-12-23T04:16:08.996Z,49.70
2022-12-23T04:18:39.040Z,48.40
2022-12-23T04:21:08.669Z,45.50
2022-12-23T04:23:41.174Z,42.90
2022-12-23T04:26:11.794Z,42.90
2022-12-23T04:33:41.479Z,46.80
2022-12-23T04:36:12.262Z,51.50
2022-12-23T04:38:42.088Z,47.60
2022-12-23T04:41:11.625Z,46.00
2022-12-23T04:43:41.175Z,52.70
2022-12-23T04:46:11.265Z,52.70
2022-12-23T04:48:40.244Z,47.20
2022-12-23T04:51:09.625Z,48.00
2022-12-23T04:53:40.660Z,54.00
2022-12-23T04:56:10.274Z,53.80
2022-12-23T04:58:39.273Z,52.90
2022-12-23T05:01:12.135Z,54.10
2022-12-23T05:03:41.911Z,50.30
2022-12-23T05:06:11.458Z,51.70
2022-12-23T05:08:40.573Z,49.70
2022-12-23T05:11:10.168Z,48.30
2022-12-23T05:13:39.969Z,55.00
2022-12-23T05:16:10.190Z,53.10
2022-12-23T05:18:39.601Z,51.10
2022-12-23T05:21:08.953Z,58.80
2022-12-23T05:23:38.360Z,56.70
2022-12-23T05:26:07.875Z,53.10
2022-12-23T05:28:37.621Z,48.80
2022-12-23T05:31:08.506Z,51.30
2022-12-23T05:33:37.821Z,47.70
2022-12-23T05:36:07.254Z,57.60
2022-12-23T05:38:36.880Z,61.50
2022-12-23T05:41:06.915Z,55.20
2022-12-23T05:43:35.557Z,57.30
2022-12-23T05:46:05.525Z,51.20
2022-12-23T05:48:34.572Z,57.30
2022-12-23T05:51:03.759Z,53.50
2022-12-23T05:53:32.775Z,54.90
2022-12-23T05:56:05.703Z,48.80
2022-12-23T05:58:35.060Z,59.90
2022-12-23T06:01:05.004Z,53.50
2022-12-23T06:03:34.273Z,46.40
2022-12-23T06:06:04.246Z,53.00
2022-12-23T06:08:33.578Z,51.30
2022-12-23T06:11:05.857Z,55.80
2022-12-23T06:13:34.537Z,49.90
2022-12-23T06:16:03.464Z,57.60
2022-12-23T06:18:32.727Z,55.60
2022-12-23T06:21:01.314Z,54.40
2022-12-23T06:23:30.193Z,53.60
2022-12-23T06:26:02.464Z,55.70
2022-12-23T06:28:31.582Z,61.50
2022-12-23T06:31:00.961Z,63.70
2022-12-23T06:33:29.652Z,56.20
2022-12-23T06:35:58.742Z,54.10
2022-12-23T06:38:27.456Z,48.60
2022-12-23T06:40:56.111Z,52.00
2022-12-23T06:43:25.004Z,60.10
2022-12-23T06:45:53.660Z,54.70
2022-12-23T06:48:22.580Z,51.90
2022-12-23T06:50:53.124Z,56.10
2022-12-23T06:53:23.036Z,51.30
2022-12-23T06:56:03.385Z,55.20
2022-12-23T07:01:00.880Z,59.50
2022-12-23T07:03:29.682Z,66.40
2022-12-23T07:05:58.439Z,63.90
2022-12-23T07:08:27.834Z,68.60
2022-12-23T07:11:03.937Z,73.00
2022-12-23T07:13:33.599Z,65.10
2022-12-23T07:16:07.729Z,64.10
2022-12-23T07:18:36.913Z,64.70
2022-12-23T07:21:09.118Z,71.80
2022-12-23T07:23:44.441Z,64.40
2022-12-23T07:26:13.303Z,64.80
2022-12-23T07:28:47.216Z,62.40
2022-12-23T07:31:17.055Z,63.80
2022-12-23T07:33:46.021Z,65.00
2022-12-23T07:36:14.710Z,59.50
2022-12-23T07:38:43.493Z,56.60
2022-12-23T07:41:12.194Z,52.10
2022-12-23T07:43:41.075Z,59.50
2022-12-23T07:46:10.548Z,56.60
2022-12-23T07:48:42.020Z,58.40
2022-12-23T07:51:11.028Z,60.90
2022-12-23T07:53:39.808Z,59.30
2022-12-23T07:56:08.898Z,64.00
2022-12-23T07:58:37.695Z,57.90
2022-12-23T08:01:08.325Z,58.20
2022-12-23T08:03:37.601Z,59.80
2022-12-23T08:06:08.615Z,64.80
2022-12-23T08:08:38.060Z,73.90
2022-12-23T08:11:09.128Z,61.50
2022-12-23T08:13:39.678Z,72.40
2022-12-23T08:16:09.569Z,80.10
2022-12-23T08:21:17.724Z,88.30
2022-12-23T08:23:47.908Z,91.50
2022-12-23T08:26:21.498Z,89.50
2022-12-23T08:28:54.681Z,87.10
2022-12-23T08:31:26.003Z,87.70
2022-12-23T08:33:57.069Z,80.60
2022-12-23T08:36:29.013Z,102.90
2022-12-23T08:38:59.947Z,105.00
2022-12-23T08:41:31.831Z,103.40
2022-12-23T08:44:00.625Z,94.20
2022-12-23T08:46:29.753Z,92.50
2022-12-23T08:48:59.021Z,84.10
2022-12-23T08:51:29.145Z,79.00
2022-12-23T08:54:01.578Z,77.50
2022-12-23T08:56:33.760Z,74.00
2022-12-23T08:59:04.247Z,90.30
2022-12-23T09:01:35.199Z,87.40
2022-12-23T09:04:06.095Z,67.20
2022-12-23T09:06:43.937Z,80.00
2022-12-23T09:09:14.918Z,74.60
2022-12-23T09:11:44.114Z,74.20
2022-12-23T09:14:13.003Z,76.30
2022-12-23T09:16:41.794Z,94.10
2022-12-23T09:19:10.992Z,72.10
2022-12-23T09:21:40.081Z,70.00
2022-12-23T09:24:08.784Z,63.40
2022-12-23T09:26:37.558Z,59.20
2022-12-23T09:29:06.240Z,58.80
2022-12-23T09:31:37.750Z,60.70
2022-12-23T09:34:07.221Z,62.80
2022-12-23T09:36:35.795Z,61.70
2022-12-23T09:39:04.567Z,58.90
2022-12-23T09:41:49.020Z,47.00
2022-12-23T09:44:23.651Z,39.30
2022-12-23T09:46:57.539Z,38.50
2022-12-23T09:49:27.575Z,35.30
2022-12-23T09:52:04.347Z,41.10
2022-12-23T09:54:46.259Z,38.00
2022-12-23T09:57:26.709Z,54.40
2022-12-23T10:00:07.379Z,47.50
2022-12-23T10:02:42.771Z,52.60
2022-12-23T10:05:30.447Z,74.30
2022-12-23T10:08:13.065Z,65.80
2022-12-23T10:10:47.691Z,69.70
2022-12-23T10:13:29.890Z,69.10
2022-12-23T10:16:04.421Z,62.70
2022-12-23T10:18:42.211Z,61.40
2022-12-23T10:21:14.951Z,60.70
2022-12-23T10:23:49.507Z,58.40
2022-12-23T10:26:32.742Z,53.90
2022-12-23T10:29:19.832Z,49.20
2022-12-23T10:32:27.108Z,56.90
2022-12-23T10:35:38.121Z,57.60
2022-12-23T10:38:28.417Z,58.00
2022-12-23T10:41:31.098Z,54.90
2022-12-23T10:44:19.138Z,60.90
2022-12-23T10:47:03.431Z,61.80
2022-12-23T10:50:06.482Z,63.60
2022-12-23T10:52:40.382Z,58.10
2022-12-23T10:55:32.954Z,50.10
2022-12-23T10:58:13.698Z,46.70
2022-12-23T11:00:47.042Z,51.70
2022-12-23T11:03:34.932Z,48.80
2022-12-23T11:06:08.021Z,46.60
2022-12-23T11:08:38.741Z,52.30
2022-12-23T11:11:07.652Z,57.20
2022-12-23T11:13:42.165Z,53.60
2022-12-23T11:16:28.648Z,56.20
2022-12-23T11:19:00.644Z,50.40
2022-12-23T11:21:30.988Z,50.90
2022-12-23T11:26:50.440Z,49.70
2022-12-23T11:29:28.390Z,47.10
2022-12-23T11:31:57.507Z,45.40
2022-12-23T11:34:31.040Z,44.70
2022-12-23T11:37:05.456Z,46.30
2022-12-23T11:39:37.854Z,48.20
2022-12-23T11:44:50.953Z,52.70
2022-12-23T11:47:22.339Z,49.60
2022-12-23T11:49:57.273Z,50.90
2022-12-23T11:52:29.317Z,45.10
2022-12-23T11:55:06.044Z,47.30
2022-12-23T11:57:49.023Z,48.90
2022-12-23T12:00:35.012Z,52.10
2022-12-23T12:03:05.263Z,44.60
2022-12-23T12:05:41.592Z,41.60
2022-12-23T12:08:15.703Z,49.50
2022-12-23T12:10:44.801Z,45.00
2022-12-23T12:13:40.520Z,47.30
2022-12-23T12:16:17.568Z,46.20
2022-12-23T12:18:53.735Z,39.00
2022-12-23T12:21:29.747Z,38.10
2022-12-23T12:24:18.189Z,42.60
2022-12-23T12:26:52.775Z,41.20
2022-12-23T12:29:37.868Z,37.70
2022-12-23T12:32:17.090Z,36.70
2022-12-23T12:34:57.554Z,35.30
2022-12-23T12:37:35.250Z,31.20
2022-12-23T12:40:13.274Z,32.70
2022-12-23T12:42:44.493Z,37.30
2022-12-23T12:45:45.380Z,31.60
2022-12-23T12:48:32.664Z,33.60
2022-12-23T12:51:26.537Z,32.50
2022-12-23T12:54:20.112Z,29.10
2022-12-23T12:56:55.046Z,30.50
2022-12-23T12:59:37.656Z,39.80
2022-12-23T13:02:44.179Z,38.90
2022-12-23T13:05:38.409Z,38.50
2022-12-23T13:08:13.136Z,33.80
2022-12-23T13:10:44.997Z,35.20
2022-12-23T13:13:33.034Z,41.20
2022-12-23T13:16:17.268Z,37.00
2022-12-23T13:18:55.393Z,34.70
2022-12-23T13:21:33.087Z,31.60
2022-12-23T13:24:10.784Z,31.70
2022-12-23T13:26:55.491Z,41.50
2022-12-23T13:29:56.278Z,38.00
2022-12-23T13:33:07.180Z,45.20
2022-12-23T13:35:41.893Z,44.10
2022-12-23T13:38:29.307Z,39.40
2022-12-23T13:41:22.484Z,45.20
2022-12-23T13:44:05.719Z,39.20
2022-12-23T13:46:53.238Z,38.30
2022-12-23T13:49:40.475Z,37.60
2022-12-23T13:52:11.897Z,34.40
2022-12-23T13:54:57.083Z,40.20
2022-12-23T13:57:34.460Z,40.20
2022-12-23T14:00:18.195Z,39.30
2022-12-23T14:03:06.202Z,33.50
2022-12-23T14:05:41.235Z,33.60
2022-12-23T14:08:19.442Z,34.20
2022-12-23T14:11:16.644Z,36.50
2022-12-23T14:13:52.376Z,34.30
2022-12-23T14:16:30.649Z,27.70
2022-12-23T14:19:24.874Z,36.70
2022-12-23T14:22:12.407Z,39.30
2022-12-23T14:25:24.223Z,41.40
2022-12-23T14:28:13.156Z,31.30
2022-12-23T14:30:47.081Z,36.30
2022-12-23T14:33:31.218Z,35.10
2022-12-23T14:36:23.336Z,34.70
2022-12-23T14:39:13.948Z,32.90
2022-12-23T14:41:50.956Z,35.00
2022-12-23T14:44:22.317Z,31.20
2022-12-23T14:46:50.950Z,35.80
2022-12-23T14:49:49.341Z,38.60
2022-12-23T14:52:42.490Z,36.00
2022-12-23T14:55:31.645Z,41.50
2022-12-23T14:58:20.627Z,45.70
2022-12-23T15:01:11.644Z,44.70
2022-12-23T15:03:45.998Z,45.30
2022-12-23T15:06:28.875Z,41.00
2022-12-23T15:08:57.987Z,45.00
2022-12-23T15:11:30.965Z,52.20
2022-12-23T15:14:16.449Z,51.10
2022-12-23T15:16:46.766Z,51.50
2022-12-23T15:19:22.354Z,51.10
2022-12-23T15:21:59.625Z,52.60
2022-12-23T15:24:32.029Z,57.80
2022-12-23T15:27:25.989Z,56.50
2022-12-23T15:29:53.689Z,49.40
2022-12-23T15:32:26.284Z,43.40
2022-12-23T15:35:06.266Z,49.00
2022-12-23T15:37:35.531Z,50.50
2022-12-23T15:40:12.810Z,54.60
2022-12-23T15:42:47.551Z,62.10
2022-12-23T15:45:41.726Z,60.30
2022-12-23T15:48:24.551Z,51.10
2022-12-23T15:51:04.195Z,71.10
2022-12-23T15:53:37.687Z,79.10
2022-12-23T15:56:10.365Z,68.30
2022-12-23T15:58:42.453Z,59.20
2022-12-23T16:01:16.171Z,79.80
2022-12-23T16:03:53.204Z,66.10
2022-12-23T16:06:36.357Z,68.00
2022-12-23T16:09:07.729Z,71.20
2022-12-23T16:11:57.067Z,71.40
2022-12-23T16:14:31.380Z,60.40
2022-12-23T16:17:25.160Z,62.30
2022-12-23T16:19:56.241Z,52.40
2022-12-23T16:22:35.942Z,54.50
2022-12-23T16:25:25.926Z,45.20
2022-12-23T16:27:59.214Z,44.70
2022-12-23T16:30:32.302Z,46.30
2022-12-23T16:33:03.677Z,53.90
2022-12-23T16:35:42.083Z,67.10
2022-12-23T16:38:18.543Z,67.10
2022-12-23T16:40:49.974Z,62.70
2022-12-23T16:43:19.690Z,50.10
2022-12-23T16:45:57.405Z,44.50
2022-12-23T16:48:41.539Z,42.40
2022-12-23T16:51:15.136Z,37.50
2022-12-23T16:53:43.622Z,38.20
2022-12-23T16:56:13.970Z,31.90
2022-12-23T16:58:43.343Z,39.30
2022-12-23T17:01:18.732Z,42.20
2022-12-23T17:03:47.478Z,40.90
2022-12-23T17:06:18.048Z,32.00
2022-12-23T17:08:47.507Z,39.60
2022-12-23T17:11:24.137Z,33.60
2022-12-23T17:13:56.667Z,41.10
2022-12-23T17:16:30.305Z,47.30
2022-12-23T17:18:59.353Z,43.70
2022-12-23T17:21:34.409Z,42.70
2022-12-23T17:24:21.810Z,45.00
2022-12-23T17:26:51.520Z,39.90
2022-12-23T17:29:20.616Z,39.70
2022-12-23T17:31:51.415Z,38.00
2022-12-23T17:34:22.785Z,39.20
2022-12-23T17:36:51.810Z,47.70
2022-12-23T17:39:22.585Z,42.00
2022-12-23T17:41:51.616Z,44.30
2022-12-23T17:44:20.711Z,39.40
2022-12-23T17:46:49.198Z,45.30
2022-12-23T17:49:17.887Z,42.70
2022-12-23T17:51:46.872Z,44.30
2022-12-23T17:54:25.696Z,49.30
2022-12-23T17:56:54.278Z,45.80
2022-12-23T17:59:23.015Z,44.30
2022-12-23T18:01:51.993Z,46.70
2022-12-23T18:04:21.578Z,51.20
2022-12-23T18:06:50.349Z,50.00
2022-12-23T18:09:21.085Z,51.20
2022-12-23T18:11:49.878Z,53.30
2022-12-23T18:14:28.291Z,54.80
2022-12-23T18:16:57.118Z,46.10
2022-12-23T18:19:26.040Z,46.60
2022-12-23T18:21:54.553Z,48.60
2022-12-23T18:24:23.128Z,54.40
2022-12-23T18:26:51.823Z,53.80
2022-12-23T18:29:20.505Z,41.10
2022-12-23T18:31:52.066Z,50.60
2022-12-23T18:34:21.671Z,54.40
2022-12-23T18:36:52.073Z,54.20
2022-12-23T18:39:21.329Z,55.10
2022-12-23T18:41:49.971Z,55.50
2022-12-23T18:44:21.323Z,45.90
2022-12-23T18:46:50.943Z,45.20
2022-12-23T18:49:19.818Z,44.50
2022-12-23T18:51:49.117Z,59.90
2022-12-23T18:54:18.021Z,61.80
2022-12-23T18:56:47.823Z,50.00
2022-12-23T18:59:24.036Z,47.90
2022-12-23T19:01:58.777Z,49.90
2022-12-23T19:04:27.858Z,49.80
2022-12-23T19:06:57.612Z,41.50
2022-12-23T19:09:28.193Z,40.40
2022-12-23T19:11:57.661Z,37.90
2022-12-23T19:14:26.436Z,37.70
2022-12-23T19:16:55.222Z,54.80
2022-12-23T19:19:24.226Z,66.00
2022-12-23T19:21:53.004Z,63.30
2022-12-23T19:24:21.618Z,55.20
2022-12-23T19:26:50.273Z,46.00
2022-12-23T19:29:18.973Z,41.70
2022-12-23T19:31:47.880Z,41.20
2022-12-23T19:34:16.767Z,37.00
2022-12-23T19:36:45.483Z,36.50
2022-12-23T19:39:17.505Z,35.00
2022-12-23T19:41:46.287Z,40.50
2022-12-23T19:44:15.490Z,38.70
2022-12-23T19:46:44.347Z,33.20
2022-12-23T19:49:19.596Z,45.00
2022-12-23T19:51:49.888Z,43.00
2022-12-23T19:54:19.818Z,45.40
2022-12-23T19:56:51.521Z,35.30
2022-12-23T19:59:21.106Z,72.60
2022-12-23T20:01:49.988Z,79.50
2022-12-23T20:04:18.678Z,63.20
2022-12-23T20:06:47.159Z,64.20
2022-12-23T20:09:15.953Z,67.70
2022-12-23T20:11:48.976Z,82.60
2022-12-23T20:14:19.667Z,73.30
2022-12-23T20:16:48.876Z,79.60
2022-12-23T20:19:17.999Z,77.80
2022-12-23T20:21:47.160Z,64.50
2022-12-23T20:24:16.381Z,52.60
2022-12-23T20:26:45.189Z,45.10
2022-12-23T20:29:13.934Z,54.70
2022-12-23T20:31:43.714Z,58.80
2022-12-23T20:34:16.325Z,61.90
2022-12-23T20:36:45.525Z,64.70
2022-12-23T20:39:14.427Z,76.30
2022-12-23T20:41:43.099Z,74.00
2022-12-23T20:47:00.325Z,65.10
2022-12-23T20:49:29.019Z,63.50
2022-12-23T20:51:57.744Z,53.20
2022-12-23T20:54:32.061Z,43.60
2022-12-23T20:57:02.967Z,34.40
2022-12-23T20:59:31.555Z,32.30
2022-12-23T21:02:01.305Z,34.30
2022-12-23T21:04:29.839Z,33.10
2022-12-23T21:06:58.640Z,56.30
2022-12-23T21:09:27.314Z,48.00
2022-12-23T21:11:55.999Z,43.90
2022-12-23T21:14:24.679Z,42.20
2022-12-23T21:16:53.463Z,37.80
2022-12-23T21:19:24.924Z,36.80
2022-12-23T21:21:54.217Z,34.00
2022-12-23T21:24:23.423Z,32.80
2022-12-23T21:26:56.304Z,34.20
2022-12-23T21:29:26.051Z,35.10
2022-12-23T21:31:55.605Z,34.20
2022-12-23T21:34:24.504Z,32.60
2022-12-23T21:36:53.578Z,27.40
2022-12-23T21:39:22.503Z,25.90
2022-12-23T21:41:53.031Z,27.00
2022-12-23T21:44:21.701Z,31.10
2022-12-23T21:46:51.692Z,27.00
2022-12-23T21:49:21.355Z,29.80
2022-12-23T21:51:50.101Z,29.70
2022-12-23T21:54:19.427Z,28.30
2022-12-23T21:56:49.225Z,32.30
2022-12-23T22:01:46.916Z,27.30
2022-12-23T22:04:15.432Z,28.00
2022-12-23T22:06:44.987Z,30.10
2022-12-23T22:09:16.862Z,26.90
2022-12-23T22:11:47.382Z,26.60
2022-12-23T22:14:19.461Z,22.10
2022-12-23T22:16:48.115Z,24.60
2022-12-23T22:19:17.264Z,39.90
2022-12-23T22:21:45.820Z,56.30
2022-12-23T22:24:14.505Z,55.40
2022-12-23T22:26:43.188Z,54.60
2022-12-23T22:29:12.298Z,54.60
2022-12-23T22:31:47.209Z,53.10
2022-12-23T22:34:19.697Z,51.50
2022-12-23T22:36:49.315Z,47.60
2022-12-23T22:39:21.645Z,55.70
2022-12-23T22:41:52.380Z,53.10
2022-12-23T22:44:21.765Z,48.90
2022-12-23T22:46:50.742Z,43.60
2022-12-23T22:49:19.594Z,36.80
2022-12-23T22:51:48.388Z,36.10
2022-12-23T22:54:17.326Z,31.20
2022-12-23T22:56:46.785Z,31.80
2022-12-23T22:59:21.674Z,38.80
2022-12-23T23:01:52.145Z,38.50
2022-12-23T23:04:21.363Z,36.30
2022-12-23T23:06:50.316Z,42.00
2022-12-23T23:09:21.599Z,30.70
2022-12-23T23:11:51.315Z,35.60
2022-12-23T23:14:20.638Z,36.00
2022-12-23T23:16:49.516Z,39.80
2022-12-23T23:19:21.015Z,34.40
2022-12-23T23:21:50.341Z,33.00
2022-12-23T23:24:19.109Z,28.60
2022-12-23T23:26:48.416Z,31.20
2022-12-23T23:29:17.904Z,33.20
2022-12-23T23:31:46.851Z,37.50
2022-12-23T23:34:15.692Z,34.10
2022-12-23T23:36:44.750Z,30.50
2022-12-23T23:39:14.832Z,24.80
2022-12-23T23:41:43.911Z,19.40
2022-12-23T23:44:13.690Z,19.90
2022-12-23T23:46:43.211Z,17.70
2022-12-23T23:49:12.310Z,16.40
2022-12-23T23:51:44.366Z,16.60
2022-12-23T23:54:13.482Z,28.30
2022-12-23T23:56:42.993Z,25.20
2022-12-23T23:59:12.318Z,22.10
